Time;durP1;ratioP1;P1;durP2;ratioP2;P2;SDS_P1;SDS_P2;PMS_P1;PMS_P2;Temp;Humidity;BMP_temperature;BMP_pressure;BME280_temperature;BME280_humidity;BME280_pressure;Samples;Min_cycle;Max_cycle;Signal;HPM_P1;HPM_P2
2021/03/21 00:01:02;;;;;;;11.17;8.23;;;6.3;99.9;;;;;;;;;
2021/03/21 00:02:02;;;;;;;10.67;8.6;;;6.2;99.9;;;;;;;;;
2021/03/21 00:03:02;;;;;;;10.5;8;;;6.2;99.9;;;;;;;;;
2021/03/21 00:03:17;;;;;;;10.5;8;;;6.2;99.9;;;;;;;;;
2021/03/21 00:04:02;;;;;;;12.4;9.2;;;6.2;99.9;;;;;;;;;
2021/03/21 00:04:14;;;;;;;12.4;9.2;;;6.2;99.9;;;;;;;;;
2021/03/21 00:05:02;;;;;;;9.7;8.7;;;6.2;99.9;;;;;;;;;
2021/03/21 00:05:14;;;;;;;9.7;8.7;;;6.2;99.9;;;;;;;;;
2021/03/21 00:05:30;;;;;;;10.5;8.27;;;6.3;99.9;;;;;;;;;
2021/03/21 00:06:02;;;;;;;10.5;8.27;;;6.3;99.9;;;;;;;;;
2021/03/21 00:06:16;;;;;;;10.5;8.27;;;6.3;99.9;;;;;;;;;
2021/03/21 00:06:26;;;;;;;9.33;8.33;;;6.3;99.9;;;;;;;;;
2021/03/21 00:07:02;;;;;;;9.33;8.33;;;6.3;99.9;;;;;;;;;
2021/03/21 00:07:17;;;;;;;9.33;8.33;;;6.3;99.9;;;;;;;;;
2021/03/21 00:07:27;;;;;;;10.43;8.43;;;6.3;99.9;;;;;;;;;
2021/03/21 00:07:43;;;;;;;10.43;8.43;;;6.3;99.9;;;;;;;;;
2021/03/21 00:08:02;;;;;;;10.43;8.43;;;6.3;99.9;;;;;;;;;
2021/03/21 00:08:13;;;;;;;10.43;8.43;;;6.3;99.9;;;;;;;;;
2021/03/21 00:08:29;;;;;;;8.9;8;;;6.3;99.9;;;;;;;;;
2021/03/21 00:08:39;;;;;;;8.9;8;;;6.3;99.9;;;;;;;;;
2021/03/21 00:09:02;;;;;;;8.9;8;;;6.3;99.9;;;;;;;;;
2021/03/21 00:09:15;;;;;;;8.9;8;;;6.3;99.9;;;;;;;;;
2021/03/21 00:09:30;;;;;;;10.2;9.1;;;6.3;99.9;;;;;;;;;
2021/03/21 00:09:40;;;;;;;10.2;9.1;;;6.3;99.9;;;;;;;;;
2021/03/21 00:09:56;;;;;;;10.2;9.1;;;6.3;99.9;;;;;;;;;
2021/03/21 00:10:02;;;;;;;10.2;9.1;;;6.3;99.9;;;;;;;;;
2021/03/21 00:10:16;;;;;;;10.2;9.1;;;6.3;99.9;;;;;;;;;
2021/03/21 00:10:26;;;;;;;9.77;8.4;;;6.3;99.9;;;;;;;;;
2021/03/21 00:10:42;;;;;;;9.77;8.4;;;6.3;99.9;;;;;;;;;
2021/03/21 00:10:52;;;;;;;9.77;8.4;;;6.3;99.9;;;;;;;;;
2021/03/21 00:11:02;;;;;;;9.77;8.4;;;6.3;99.9;;;;;;;;;
2021/03/21 00:11:13;;;;;;;9.77;8.4;;;6.3;99.9;;;;;;;;;
2021/03/21 00:11:28;;;;;;;11.37;9.03;;;6.3;99.9;;;;;;;;;
2021/03/21 00:11:43;;;;;;;11.37;9.03;;;6.3;99.9;;;;;;;;;
2021/03/21 00:11:54;;;;;;;11.37;9.03;;;6.3;99.9;;;;;;;;;
2021/03/21 00:12:02;;;;;;;11.37;9.03;;;6.3;99.9;;;;;;;;;
2021/03/21 00:12:09;;;;;;;11.37;9.03;;;6.3;99.9;;;;;;;;;
2021/03/21 00:12:14;;;;;;;11.37;9.03;;;6.3;99.9;;;;;;;;;
2021/03/21 00:12:29;;;;;;;9.17;8.2;;;6.4;99.9;;;;;;;;;
2021/03/21 00:12:40;;;;;;;9.17;8.2;;;6.4;99.9;;;;;;;;;
2021/03/21 00:13:00;;;;;;;9.17;8.2;;;6.4;99.9;;;;;;;;;
2021/03/21 00:13:02;;;;;;;9.17;8.2;;;6.4;99.9;;;;;;;;;
2021/03/21 00:13:05;;;;;;;9.17;8.2;;;6.4;99.9;;;;;;;;;
2021/03/21 00:13:16;;;;;;;9.17;8.2;;;6.4;99.9;;;;;;;;;
2021/03/21 00:13:26;;;;;;;10.87;8.7;;;6.4;99.9;;;;;;;;;
2021/03/21 00:13:41;;;;;;;10.87;8.7;;;6.4;99.9;;;;;;;;;
2021/03/21 00:13:56;;;;;;;10.87;8.7;;;6.4;99.9;;;;;;;;;
2021/03/21 00:14:02;;;;;;;10.87;8.7;;;6.4;99.9;;;;;;;;;
2021/03/21 00:14:07;;;;;;;10.87;8.7;;;6.4;99.9;;;;;;;;;
2021/03/21 00:14:17;;;;;;;10.87;8.7;;;6.4;99.9;;;;;;;;;
2021/03/21 00:14:30;;;;;;;9.67;8.77;;;6.4;99.9;;;;;;;;;
2021/03/21 00:14:42;;;;;;;9.67;8.77;;;6.4;99.9;;;;;;;;;
2021/03/21 00:14:53;;;;;;;9.67;8.77;;;6.4;99.9;;;;;;;;;
2021/03/21 00:15:02;;;;;;;9.67;8.77;;;6.4;99.9;;;;;;;;;
2021/03/21 00:15:13;;;;;;;9.67;8.77;;;6.4;99.9;;;;;;;;;
2021/03/21 00:15:13;;;;;;;9.67;8.77;;;6.4;99.9;;;;;;;;;
2021/03/21 00:15:29;;;;;;;10.6;9.4;;;6.4;99.9;;;;;;;;;
2021/03/21 00:15:39;;;;;;;10.6;9.4;;;6.4;99.9;;;;;;;;;
2021/03/21 00:15:54;;;;;;;10.6;9.4;;;6.4;99.9;;;;;;;;;
2021/03/21 00:16:02;;;;;;;10.6;9.4;;;6.4;99.9;;;;;;;;;
2021/03/21 00:16:10;;;;;;;10.6;9.4;;;6.4;99.9;;;;;;;;;
2021/03/21 00:16:15;;;;;;;10.6;9.4;;;6.4;99.9;;;;;;;;;
2021/03/21 00:16:30;;;;;;;9.83;8.27;;;6.4;99.9;;;;;;;;;
2021/03/21 00:16:40;;;;;;;9.83;8.27;;;6.4;99.9;;;;;;;;;
2021/03/21 00:16:56;;;;;;;9.83;8.27;;;6.4;99.9;;;;;;;;;
2021/03/21 00:17:02;;;;;;;9.83;8.27;;;6.4;99.9;;;;;;;;;
2021/03/21 00:17:06;;;;;;;9.83;8.27;;;6.4;99.9;;;;;;;;;
2021/03/21 00:17:16;;;;;;;9.83;8.27;;;6.4;99.9;;;;;;;;;
2021/03/21 00:17:26;;;;;;;9.97;8.67;;;6.4;99.9;;;;;;;;;
2021/03/21 00:17:42;;;;;;;9.97;8.67;;;6.4;99.9;;;;;;;;;
2021/03/21 00:17:54;;;;;;;9.97;8.67;;;6.4;99.9;;;;;;;;;
2021/03/21 00:18:02;;;;;;;9.97;8.67;;;6.4;99.9;;;;;;;;;
2021/03/21 00:18:07;;;;;;;9.97;8.67;;;6.4;99.9;;;;;;;;;
2021/03/21 00:18:18;;;;;;;9.97;8.67;;;6.4;99.9;;;;;;;;;
2021/03/21 00:18:28;;;;;;;9.57;8.57;;;6.4;99.9;;;;;;;;;
2021/03/21 00:18:43;;;;;;;9.57;8.57;;;6.4;99.9;;;;;;;;;
2021/03/21 00:18:54;;;;;;;9.57;8.57;;;6.4;99.9;;;;;;;;;
2021/03/21 00:19:01;;;;;;;9.57;8.57;;;6.4;99.9;;;;;;;;;
2021/03/21 00:19:09;;;;;;;9.57;8.57;;;6.4;99.9;;;;;;;;;
2021/03/21 00:19:14;;;;;;;9.57;8.57;;;6.4;99.9;;;;;;;;;
2021/03/21 00:19:29;;;;;;;10.33;9.23;;;6.4;99.9;;;;;;;;;
2021/03/21 00:19:40;;;;;;;10.33;9.23;;;6.4;99.9;;;;;;;;;
2021/03/21 00:19:55;;;;;;;10.33;9.23;;;6.4;99.9;;;;;;;;;
2021/03/21 00:20:02;;;;;;;10.33;9.23;;;6.4;99.9;;;;;;;;;
2021/03/21 00:20:05;;;;;;;10.33;9.23;;;6.4;99.9;;;;;;;;;
2021/03/21 00:20:15;;;;;;;10.33;9.23;;;6.4;99.9;;;;;;;;;
2021/03/21 00:20:31;;;;;;;10.63;9.53;;;6.3;99.9;;;;;;;;;
2021/03/21 00:20:41;;;;;;;10.63;9.53;;;6.3;99.9;;;;;;;;;
2021/03/21 00:20:56;;;;;;;10.63;9.53;;;6.3;99.9;;;;;;;;;
2021/03/21 00:21:02;;;;;;;10.63;9.53;;;6.3;99.9;;;;;;;;;
2021/03/21 00:21:07;;;;;;;10.63;9.53;;;6.3;99.9;;;;;;;;;
2021/03/21 00:21:12;;;;;;;10.63;9.53;;;6.3;99.9;;;;;;;;;
2021/03/21 00:21:27;;;;;;;10.43;9.17;;;6.3;99.9;;;;;;;;;
2021/03/21 00:21:42;;;;;;;10.43;9.17;;;6.3;99.9;;;;;;;;;
2021/03/21 00:21:53;;;;;;;10.43;9.17;;;6.3;99.9;;;;;;;;;
2021/03/21 00:22:01;;;;;;;10.43;9.17;;;6.3;99.9;;;;;;;;;
2021/03/21 00:22:08;;;;;;;10.43;9.17;;;6.3;99.9;;;;;;;;;
2021/03/21 00:22:18;;;;;;;10.43;9.17;;;6.3;99.9;;;;;;;;;
2021/03/21 00:22:29;;;;;;;11.13;8.73;;;6.3;99.9;;;;;;;;;
2021/03/21 00:22:44;;;;;;;11.13;8.73;;;6.3;99.9;;;;;;;;;
2021/03/21 00:22:54;;;;;;;11.13;8.73;;;6.3;99.9;;;;;;;;;
2021/03/21 00:23:02;;;;;;;11.13;8.73;;;6.3;99.9;;;;;;;;;
2021/03/21 00:23:10;;;;;;;11.13;8.73;;;6.3;99.9;;;;;;;;;
2021/03/21 00:23:15;;;;;;;11.13;8.73;;;6.3;99.9;;;;;;;;;
2021/03/21 00:23:25;;;;;;;11.13;8.73;;;6.3;99.9;;;;;;;;;
2021/03/21 00:23:40;;;;;;;10.97;9.63;;;6.3;99.9;;;;;;;;;
2021/03/21 00:23:55;;;;;;;10.97;9.63;;;6.3;99.9;;;;;;;;;
2021/03/21 00:24:02;;;;;;;10.97;9.63;;;6.3;99.9;;;;;;;;;
2021/03/21 00:24:06;;;;;;;10.97;9.63;;;6.3;99.9;;;;;;;;;
2021/03/21 00:24:16;;;;;;;10.97;9.63;;;6.3;99.9;;;;;;;;;
2021/03/21 00:24:31;;;;;;;10.5;9.47;;;6.3;99.9;;;;;;;;;
2021/03/21 00:24:42;;;;;;;10.5;9.47;;;6.3;99.9;;;;;;;;;
2021/03/21 00:24:57;;;;;;;10.5;9.47;;;6.3;99.9;;;;;;;;;
2021/03/21 00:25:02;;;;;;;10.5;9.47;;;6.3;99.9;;;;;;;;;
2021/03/21 00:25:07;;;;;;;10.5;9.47;;;6.3;99.9;;;;;;;;;
2021/03/21 00:25:12;;;;;;;10.5;9.47;;;6.3;99.9;;;;;;;;;
2021/03/21 00:25:28;;;;;;;10.87;9.73;;;6.3;99.9;;;;;;;;;
2021/03/21 00:25:38;;;;;;;10.87;9.73;;;6.3;99.9;;;;;;;;;
2021/03/21 00:25:53;;;;;;;10.87;9.73;;;6.3;99.9;;;;;;;;;
2021/03/21 00:26:02;;;;;;;10.87;9.73;;;6.3;99.9;;;;;;;;;
2021/03/21 00:26:09;;;;;;;10.87;9.73;;;6.3;99.9;;;;;;;;;
2021/03/21 00:26:14;;;;;;;10.87;9.73;;;6.3;99.9;;;;;;;;;
2021/03/21 00:26:29;;;;;;;10.93;9.23;;;6.3;99.9;;;;;;;;;
2021/03/21 00:26:45;;;;;;;10.93;9.23;;;6.3;99.9;;;;;;;;;
2021/03/21 00:26:55;;;;;;;10.93;9.23;;;6.3;99.9;;;;;;;;;
2021/03/21 00:27:01;;;;;;;10.93;9.23;;;6.3;99.9;;;;;;;;;
2021/03/21 00:27:10;;;;;;;10.93;9.23;;;6.3;99.9;;;;;;;;;
2021/03/21 00:27:15;;;;;;;10.93;9.23;;;6.3;99.9;;;;;;;;;
2021/03/21 00:27:25;;;;;;;10.93;9.23;;;6.3;99.9;;;;;;;;;
2021/03/21 00:27:41;;;;;;;11.33;9.67;;;6.3;99.9;;;;;;;;;
2021/03/21 00:27:51;;;;;;;11.33;9.67;;;6.3;99.9;;;;;;;;;
2021/03/21 00:28:02;;;;;;;11.33;9.67;;;6.3;99.9;;;;;;;;;
2021/03/21 00:28:06;;;;;;;11.33;9.67;;;6.3;99.9;;;;;;;;;
2021/03/21 00:28:17;;;;;;;11.33;9.67;;;6.3;99.9;;;;;;;;;
2021/03/21 00:28:27;;;;;;;11.33;9.67;;;6.3;99.9;;;;;;;;;
2021/03/21 00:28:42;;;;;;;10.53;9.43;;;6.3;99.9;;;;;;;;;
2021/03/21 00:28:59;;;;;;;10.53;9.43;;;6.3;99.9;;;;;;;;;
2021/03/21 00:29:01;;;;;;;10.53;9.43;;;6.3;99.9;;;;;;;;;
2021/03/21 00:29:08;;;;;;;10.53;9.43;;;6.3;99.9;;;;;;;;;
2021/03/21 00:29:13;;;;;;;10.53;9.43;;;6.3;99.9;;;;;;;;;
2021/03/21 00:29:28;;;;;;;11.13;9.23;;;6.3;99.9;;;;;;;;;
2021/03/21 00:29:39;;;;;;;11.13;9.23;;;6.3;99.9;;;;;;;;;
2021/03/21 00:29:54;;;;;;;11.13;9.23;;;6.3;99.9;;;;;;;;;
2021/03/21 00:30:02;;;;;;;11.13;9.23;;;6.3;99.9;;;;;;;;;
2021/03/21 00:30:04;;;;;;;11.13;9.23;;;6.3;99.9;;;;;;;;;
2021/03/21 00:30:14;;;;;;;11.13;9.23;;;6.3;99.9;;;;;;;;;
2021/03/21 00:30:30;;;;;;;10.5;9.4;;;6.3;99.9;;;;;;;;;
2021/03/21 00:30:40;;;;;;;10.5;9.4;;;6.3;99.9;;;;;;;;;
2021/03/21 00:30:55;;;;;;;10.5;9.4;;;6.3;99.9;;;;;;;;;
2021/03/21 00:31:02;;;;;;;10.5;9.4;;;6.3;99.9;;;;;;;;;
2021/03/21 00:31:11;;;;;;;10.5;9.4;;;6.3;99.9;;;;;;;;;
2021/03/21 00:31:16;;;;;;;10.5;9.4;;;6.3;99.9;;;;;;;;;
2021/03/21 00:31:26;;;;;;;10.5;9.4;;;6.3;99.9;;;;;;;;;
2021/03/21 00:31:41;;;;;;;11.13;9.93;;;6.3;99.9;;;;;;;;;
2021/03/21 00:31:52;;;;;;;11.13;9.93;;;6.3;99.9;;;;;;;;;
2021/03/21 00:32:01;;;;;;;11.13;9.93;;;6.3;99.9;;;;;;;;;
2021/03/21 00:32:07;;;;;;;11.13;9.93;;;6.3;99.9;;;;;;;;;
2021/03/21 00:32:17;;;;;;;11.13;9.93;;;6.3;99.9;;;;;;;;;
2021/03/21 00:32:28;;;;;;;11.13;9.93;;;6.3;99.9;;;;;;;;;
2021/03/21 00:32:48;;;;;;;13.23;10.13;;;6.4;99.9;;;;;;;;;
2021/03/21 00:32:53;;;;;;;13.23;10.13;;;6.4;99.9;;;;;;;;;
2021/03/21 00:33:02;;;;;;;13.23;10.13;;;6.4;99.9;;;;;;;;;
2021/03/21 00:33:08;;;;;;;13.23;10.13;;;6.4;99.9;;;;;;;;;
2021/03/21 00:33:14;;;;;;;13.23;10.13;;;6.4;99.9;;;;;;;;;
2021/03/21 00:33:29;;;;;;;13.23;10.13;;;6.4;99.9;;;;;;;;;
2021/03/21 00:33:39;;;;;;;10.6;9.5;;;6.3;99.9;;;;;;;;;
2021/03/21 00:33:55;;;;;;;10.6;9.5;;;6.3;99.9;;;;;;;;;
2021/03/21 00:34:01;;;;;;;10.6;9.5;;;6.3;99.9;;;;;;;;;
2021/03/21 00:34:05;;;;;;;10.6;9.5;;;6.3;99.9;;;;;;;;;
2021/03/21 00:34:15;;;;;;;10.6;9.5;;;6.3;99.9;;;;;;;;;
2021/03/21 00:34:30;;;;;;;11;9.9;;;6.3;99.9;;;;;;;;;
2021/03/21 00:34:41;;;;;;;11;9.9;;;6.3;99.9;;;;;;;;;
2021/03/21 00:35:01;;;;;;;11;9.9;;;6.3;99.9;;;;;;;;;
2021/03/21 00:35:02;;;;;;;11;9.9;;;6.3;99.9;;;;;;;;;
2021/03/21 00:35:06;;;;;;;11;9.9;;;6.3;99.9;;;;;;;;;
2021/03/21 00:35:16;;;;;;;11;9.9;;;6.3;99.9;;;;;;;;;
2021/03/21 00:35:27;;;;;;;11;9.9;;;6.3;99.9;;;;;;;;;
2021/03/21 00:35:42;;;;;;;10.6;9.37;;;6.3;99.9;;;;;;;;;
2021/03/21 00:35:52;;;;;;;10.6;9.37;;;6.3;99.9;;;;;;;;;
2021/03/21 00:36:02;;;;;;;10.6;9.37;;;6.3;99.9;;;;;;;;;
2021/03/21 00:36:08;;;;;;;10.6;9.37;;;6.3;99.9;;;;;;;;;
2021/03/21 00:36:13;;;;;;;10.6;9.37;;;6.3;99.9;;;;;;;;;
2021/03/21 00:36:28;;;;;;;10.6;9.37;;;6.3;99.9;;;;;;;;;
2021/03/21 00:36:43;;;;;;;11.83;10.13;;;6.3;99.9;;;;;;;;;
2021/03/21 00:36:54;;;;;;;11.83;10.13;;;6.3;99.9;;;;;;;;;
2021/03/21 00:37:01;;;;;;;11.83;10.13;;;6.3;99.9;;;;;;;;;
2021/03/21 00:37:14;;;;;;;11.83;10.13;;;6.3;99.9;;;;;;;;;
2021/03/21 00:37:14;;;;;;;11.83;10.13;;;6.3;99.9;;;;;;;;;
2021/03/21 00:37:30;;;;;;;11.83;10.13;;;6.3;99.9;;;;;;;;;
2021/03/21 00:37:41;;;;;;;12.87;10.73;;;6.3;99.9;;;;;;;;;
2021/03/21 00:37:55;;;;;;;12.87;10.73;;;6.3;99.9;;;;;;;;;
2021/03/21 00:38:02;;;;;;;12.87;10.73;;;6.3;99.9;;;;;;;;;
2021/03/21 00:38:05;;;;;;;12.87;10.73;;;6.3;99.9;;;;;;;;;
2021/03/21 00:38:16;;;;;;;12.87;10.73;;;6.3;99.9;;;;;;;;;
2021/03/21 00:38:26;;;;;;;12.87;10.73;;;6.3;99.9;;;;;;;;;
2021/03/21 00:38:41;;;;;;;12.37;9.97;;;6.4;99.9;;;;;;;;;
2021/03/21 00:38:57;;;;;;;12.37;9.97;;;6.4;99.9;;;;;;;;;
2021/03/21 00:39:01;;;;;;;12.37;9.97;;;6.4;99.9;;;;;;;;;
2021/03/21 00:39:07;;;;;;;12.37;9.97;;;6.4;99.9;;;;;;;;;
2021/03/21 00:39:12;;;;;;;12.37;9.97;;;6.4;99.9;;;;;;;;;
2021/03/21 00:39:27;;;;;;;12.37;9.97;;;6.4;99.9;;;;;;;;;
2021/03/21 00:39:43;;;;;;;12.6;10.57;;;6.4;99.9;;;;;;;;;
2021/03/21 00:39:53;;;;;;;12.6;10.57;;;6.4;99.9;;;;;;;;;
2021/03/21 00:40:02;;;;;;;12.6;10.57;;;6.4;99.9;;;;;;;;;
2021/03/21 00:40:08;;;;;;;12.6;10.57;;;6.4;99.9;;;;;;;;;
2021/03/21 00:40:18;;;;;;;12.6;10.57;;;6.4;99.9;;;;;;;;;
2021/03/21 00:40:29;;;;;;;12.6;10.57;;;6.4;99.9;;;;;;;;;
2021/03/21 00:40:39;;;;;;;11.23;10;;;6.3;99.9;;;;;;;;;
2021/03/21 00:40:54;;;;;;;11.23;10;;;6.3;99.9;;;;;;;;;
2021/03/21 00:41:02;;;;;;;11.23;10;;;6.3;99.9;;;;;;;;;
2021/03/21 00:41:10;;;;;;;11.23;10;;;6.3;99.9;;;;;;;;;
2021/03/21 00:41:15;;;;;;;11.23;10;;;6.3;99.9;;;;;;;;;
2021/03/21 00:41:25;;;;;;;11.23;10;;;6.3;99.9;;;;;;;;;
2021/03/21 00:41:40;;;;;;;10.93;9.67;;;6.4;99.9;;;;;;;;;
2021/03/21 00:41:56;;;;;;;10.93;9.67;;;6.4;99.9;;;;;;;;;
2021/03/21 00:42:02;;;;;;;10.93;9.67;;;6.4;99.9;;;;;;;;;
2021/03/21 00:42:06;;;;;;;10.93;9.67;;;6.4;99.9;;;;;;;;;
2021/03/21 00:42:16;;;;;;;10.93;9.67;;;6.4;99.9;;;;;;;;;
2021/03/21 00:42:32;;;;;;;10.93;9.67;;;6.4;99.9;;;;;;;;;
2021/03/21 00:42:42;;;;;;;10.6;9.5;;;6.4;99.9;;;;;;;;;
2021/03/21 00:42:52;;;;;;;10.6;9.5;;;6.4;99.9;;;;;;;;;
2021/03/21 00:43:02;;;;;;;10.6;9.5;;;6.4;99.9;;;;;;;;;
2021/03/21 00:43:08;;;;;;;10.6;9.5;;;6.4;99.9;;;;;;;;;
2021/03/21 00:43:13;;;;;;;10.6;9.5;;;6.4;99.9;;;;;;;;;
2021/03/21 00:43:28;;;;;;;10.6;9.5;;;6.4;99.9;;;;;;;;;
2021/03/21 00:43:38;;;;;;;10.33;9.23;;;6.3;99.9;;;;;;;;;
2021/03/21 00:43:54;;;;;;;10.33;9.23;;;6.3;99.9;;;;;;;;;
2021/03/21 00:44:02;;;;;;;10.33;9.23;;;6.3;99.9;;;;;;;;;
2021/03/21 00:44:09;;;;;;;10.33;9.23;;;6.3;99.9;;;;;;;;;
2021/03/21 00:44:14;;;;;;;10.33;9.23;;;6.3;99.9;;;;;;;;;
2021/03/21 00:44:30;;;;;;;10.33;9.23;;;6.3;99.9;;;;;;;;;
2021/03/21 00:44:45;;;;;;;11.57;10.33;;;6.3;99.9;;;;;;;;;
2021/03/21 00:44:55;;;;;;;11.57;10.33;;;6.3;99.9;;;;;;;;;
2021/03/21 00:45:02;;;;;;;11.57;10.33;;;6.3;99.9;;;;;;;;;
2021/03/21 00:45:05;;;;;;;11.57;10.33;;;6.3;99.9;;;;;;;;;
2021/03/21 00:45:15;;;;;;;11.57;10.33;;;6.3;99.9;;;;;;;;;
2021/03/21 00:45:26;;;;;;;11.57;10.33;;;6.3;99.9;;;;;;;;;
2021/03/21 00:45:41;;;;;;;11.4;10.2;;;6.3;99.9;;;;;;;;;
2021/03/21 00:45:51;;;;;;;11.4;10.2;;;6.3;99.9;;;;;;;;;
2021/03/21 00:46:02;;;;;;;11.4;10.2;;;6.3;99.9;;;;;;;;;
2021/03/21 00:46:07;;;;;;;11.4;10.2;;;6.3;99.9;;;;;;;;;
2021/03/21 00:46:12;;;;;;;11.4;10.2;;;6.3;99.9;;;;;;;;;
2021/03/21 00:46:27;;;;;;;11.4;10.2;;;6.3;99.9;;;;;;;;;
2021/03/21 00:46:43;;;;;;;12.37;10.43;;;6.3;99.9;;;;;;;;;
2021/03/21 00:46:58;;;;;;;12.37;10.43;;;6.3;99.9;;;;;;;;;
2021/03/21 00:47:02;;;;;;;12.37;10.43;;;6.3;99.9;;;;;;;;;
2021/03/21 00:47:08;;;;;;;12.37;10.43;;;6.3;99.9;;;;;;;;;
2021/03/21 00:47:13;;;;;;;12.37;10.43;;;6.3;99.9;;;;;;;;;
2021/03/21 00:47:29;;;;;;;12.37;10.43;;;6.3;99.9;;;;;;;;;
2021/03/21 00:47:39;;;;;;;12.03;9.7;;;6.3;99.9;;;;;;;;;
2021/03/21 00:47:55;;;;;;;12.03;9.7;;;6.3;99.9;;;;;;;;;
2021/03/21 00:48:02;;;;;;;12.03;9.7;;;6.3;99.9;;;;;;;;;
2021/03/21 00:48:04;;;;;;;12.03;9.7;;;6.3;99.9;;;;;;;;;
2021/03/21 00:48:15;;;;;;;12.03;9.7;;;6.3;99.9;;;;;;;;;
2021/03/21 00:48:25;;;;;;;12.03;9.7;;;6.3;99.9;;;;;;;;;
2021/03/21 00:48:40;;;;;;;11.67;10.47;;;6.4;99.9;;;;;;;;;
2021/03/21 00:48:56;;;;;;;11.67;10.47;;;6.4;99.9;;;;;;;;;
2021/03/21 00:49:01;;;;;;;11.67;10.47;;;6.4;99.9;;;;;;;;;
2021/03/21 00:49:11;;;;;;;11.67;10.47;;;6.4;99.9;;;;;;;;;
2021/03/21 00:49:16;;;;;;;11.67;10.47;;;6.4;99.9;;;;;;;;;
2021/03/21 00:49:26;;;;;;;11.67;10.47;;;6.4;99.9;;;;;;;;;
2021/03/21 00:49:42;;;;;;;11.1;9.9;;;6.4;99.9;;;;;;;;;
2021/03/21 00:49:52;;;;;;;11.1;9.9;;;6.4;99.9;;;;;;;;;
2021/03/21 00:50:02;;;;;;;11.1;9.9;;;6.4;99.9;;;;;;;;;
2021/03/21 00:50:07;;;;;;;11.1;9.9;;;6.4;99.9;;;;;;;;;
2021/03/21 00:50:13;;;;;;;11.1;9.9;;;6.4;99.9;;;;;;;;;
2021/03/21 00:50:28;;;;;;;11.1;9.9;;;6.4;99.9;;;;;;;;;
2021/03/21 00:50:38;;;;;;;11.07;9.87;;;6.4;99.9;;;;;;;;;
2021/03/21 00:50:53;;;;;;;11.07;9.87;;;6.4;99.9;;;;;;;;;
2021/03/21 00:51:01;;;;;;;11.07;9.87;;;6.4;99.9;;;;;;;;;
2021/03/21 00:51:09;;;;;;;11.07;9.87;;;6.4;99.9;;;;;;;;;
2021/03/21 00:51:14;;;;;;;11.07;9.87;;;6.4;99.9;;;;;;;;;
2021/03/21 00:51:29;;;;;;;11.07;9.87;;;6.4;99.9;;;;;;;;;
2021/03/21 00:51:40;;;;;;;10;9;;;6.5;99.9;;;;;;;;;
2021/03/21 00:51:55;;;;;;;10;9;;;6.5;99.9;;;;;;;;;
2021/03/21 00:52:02;;;;;;;10;9;;;6.5;99.9;;;;;;;;;
2021/03/21 00:52:05;;;;;;;10;9;;;6.5;99.9;;;;;;;;;
2021/03/21 00:52:15;;;;;;;10;9;;;6.5;99.9;;;;;;;;;
2021/03/21 00:52:31;;;;;;;10;9;;;6.5;99.9;;;;;;;;;
2021/03/21 00:52:41;;;;;;;10.73;9.13;;;6.5;99.9;;;;;;;;;
2021/03/21 00:52:51;;;;;;;10.73;9.13;;;6.5;99.9;;;;;;;;;
2021/03/21 00:53:02;;;;;;;10.73;9.13;;;6.5;99.9;;;;;;;;;
2021/03/21 00:53:07;;;;;;;10.73;9.13;;;6.5;99.9;;;;;;;;;
2021/03/21 00:53:12;;;;;;;10.73;9.13;;;6.5;99.9;;;;;;;;;
2021/03/21 00:53:27;;;;;;;10.73;9.13;;;6.5;99.9;;;;;;;;;
2021/03/21 00:53:42;;;;;;;12;10.33;;;6.5;99.9;;;;;;;;;
2021/03/21 00:53:53;;;;;;;12;10.33;;;6.5;99.9;;;;;;;;;
2021/03/21 00:54:01;;;;;;;12;10.33;;;6.5;99.9;;;;;;;;;
2021/03/21 00:54:08;;;;;;;12;10.33;;;6.5;99.9;;;;;;;;;
2021/03/21 00:54:13;;;;;;;12;10.33;;;6.5;99.9;;;;;;;;;
2021/03/21 00:54:28;;;;;;;12;10.33;;;6.5;99.9;;;;;;;;;
2021/03/21 00:54:44;;;;;;;12.23;10.03;;;6.5;99.9;;;;;;;;;
2021/03/21 00:54:54;;;;;;;12.23;10.03;;;6.5;99.9;;;;;;;;;
2021/03/21 00:55:02;;;;;;;12.23;10.03;;;6.5;99.9;;;;;;;;;
2021/03/21 00:55:04;;;;;;;12.23;10.03;;;6.5;99.9;;;;;;;;;
2021/03/21 00:55:15;;;;;;;12.23;10.03;;;6.5;99.9;;;;;;;;;
2021/03/21 00:55:25;;;;;;;12.23;10.03;;;6.5;99.9;;;;;;;;;
2021/03/21 00:55:40;;;;;;;10.33;9;;;6.5;99.9;;;;;;;;;
2021/03/21 00:55:55;;;;;;;10.33;9;;;6.5;99.9;;;;;;;;;
2021/03/21 00:56:02;;;;;;;10.33;9;;;6.5;99.9;;;;;;;;;
2021/03/21 00:56:06;;;;;;;10.33;9;;;6.5;99.9;;;;;;;;;
2021/03/21 00:56:16;;;;;;;10.33;9;;;6.5;99.9;;;;;;;;;
2021/03/21 00:56:27;;;;;;;10.33;9;;;6.5;99.9;;;;;;;;;
2021/03/21 00:56:42;;;;;;;10.5;9.5;;;6.5;99.9;;;;;;;;;
2021/03/21 00:56:57;;;;;;;10.5;9.5;;;6.5;99.9;;;;;;;;;
2021/03/21 00:57:02;;;;;;;10.5;9.5;;;6.5;99.9;;;;;;;;;
2021/03/21 00:57:07;;;;;;;10.5;9.5;;;6.5;99.9;;;;;;;;;
2021/03/21 00:57:17;;;;;;;10.5;9.5;;;6.5;99.9;;;;;;;;;
2021/03/21 00:57:28;;;;;;;10.5;9.5;;;6.5;99.9;;;;;;;;;
2021/03/21 00:57:38;;;;;;;11.67;10.47;;;6.4;99.9;;;;;;;;;
2021/03/21 00:57:53;;;;;;;11.67;10.47;;;6.4;99.9;;;;;;;;;
2021/03/21 00:58:02;;;;;;;11.67;10.47;;;6.4;99.9;;;;;;;;;
2021/03/21 00:58:09;;;;;;;11.67;10.47;;;6.4;99.9;;;;;;;;;
2021/03/21 00:58:14;;;;;;;11.67;10.47;;;6.4;99.9;;;;;;;;;
2021/03/21 00:58:34;;;;;;;11.67;10.47;;;6.4;99.9;;;;;;;;;
2021/03/21 00:58:39;;;;;;;11.8;10.33;;;6.4;99.9;;;;;;;;;
2021/03/21 00:58:55;;;;;;;11.8;10.33;;;6.4;99.9;;;;;;;;;
2021/03/21 00:59:01;;;;;;;11.8;10.33;;;6.4;99.9;;;;;;;;;
2021/03/21 00:59:10;;;;;;;11.8;10.33;;;6.4;99.9;;;;;;;;;
2021/03/21 00:59:15;;;;;;;11.8;10.33;;;6.4;99.9;;;;;;;;;
2021/03/21 00:59:31;;;;;;;11.8;10.33;;;6.4;99.9;;;;;;;;;
2021/03/21 00:59:41;;;;;;;10.77;9.4;;;6.5;99.9;;;;;;;;;
2021/03/21 00:59:51;;;;;;;10.77;9.4;;;6.5;99.9;;;;;;;;;
2021/03/21 01:00:02;;;;;;;10.77;9.4;;;6.5;99.9;;;;;;;;;
2021/03/21 01:00:06;;;;;;;10.77;9.4;;;6.5;99.9;;;;;;;;;
2021/03/21 01:00:17;;;;;;;10.77;9.4;;;6.5;99.9;;;;;;;;;
2021/03/21 01:00:27;;;;;;;10.77;9.4;;;6.5;99.9;;;;;;;;;
2021/03/21 01:00:47;;;;;;;11.4;9.97;;;6.5;99.9;;;;;;;;;
2021/03/21 01:00:52;;;;;;;11.4;9.97;;;6.5;99.9;;;;;;;;;
2021/03/21 01:01:01;;;;;;;11.4;9.97;;;6.5;99.9;;;;;;;;;
2021/03/21 01:01:08;;;;;;;11.4;9.97;;;6.5;99.9;;;;;;;;;
2021/03/21 01:01:13;;;;;;;11.4;9.97;;;6.5;99.9;;;;;;;;;
2021/03/21 01:01:30;;;;;;;11.4;9.97;;;6.5;99.9;;;;;;;;;
2021/03/21 01:01:44;;;;;;;11.2;9.83;;;6.5;99.9;;;;;;;;;
2021/03/21 01:01:54;;;;;;;11.2;9.83;;;6.5;99.9;;;;;;;;;
2021/03/21 01:02:02;;;;;;;11.2;9.83;;;6.5;99.9;;;;;;;;;
2021/03/21 01:02:07;;;;;;;11.2;9.83;;;6.5;99.9;;;;;;;;;
2021/03/21 01:02:14;;;;;;;11.2;9.83;;;6.5;99.9;;;;;;;;;
2021/03/21 01:02:30;;;;;;;11.2;9.83;;;6.5;99.9;;;;;;;;;
2021/03/21 01:02:40;;;;;;;11;9.6;;;6.5;99.9;;;;;;;;;
2021/03/21 01:03:00;;;;;;;11;9.6;;;6.5;99.9;;;;;;;;;
2021/03/21 01:03:02;;;;;;;11;9.6;;;6.5;99.9;;;;;;;;;
2021/03/21 01:03:06;;;;;;;11;9.6;;;6.5;99.9;;;;;;;;;
2021/03/21 01:03:16;;;;;;;11;9.6;;;6.5;99.9;;;;;;;;;
2021/03/21 01:03:26;;;;;;;11;9.6;;;6.5;99.9;;;;;;;;;
2021/03/21 01:03:41;;;;;;;12.07;10.13;;;6.5;99.9;;;;;;;;;
2021/03/21 01:03:57;;;;;;;12.07;10.13;;;6.5;99.9;;;;;;;;;
2021/03/21 01:04:01;;;;;;;12.07;10.13;;;6.5;99.9;;;;;;;;;
2021/03/21 01:04:07;;;;;;;12.07;10.13;;;6.5;99.9;;;;;;;;;
2021/03/21 01:04:13;;;;;;;12.07;10.13;;;6.5;99.9;;;;;;;;;
2021/03/21 01:04:27;;;;;;;12.07;10.13;;;6.5;99.9;;;;;;;;;
2021/03/21 01:04:43;;;;;;;11.7;10.03;;;6.5;99.9;;;;;;;;;
2021/03/21 01:04:53;;;;;;;11.7;10.03;;;6.5;99.9;;;;;;;;;
2021/03/21 01:05:02;;;;;;;11.7;10.03;;;6.5;99.9;;;;;;;;;
2021/03/21 01:05:14;;;;;;;11.7;10.03;;;6.5;99.9;;;;;;;;;
2021/03/21 01:05:14;;;;;;;11.7;10.03;;;6.5;99.9;;;;;;;;;
2021/03/21 01:05:29;;;;;;;11.7;10.03;;;6.5;99.9;;;;;;;;;
2021/03/21 01:05:39;;;;;;;11.3;9.87;;;6.5;99.9;;;;;;;;;
2021/03/21 01:05:54;;;;;;;11.3;9.87;;;6.5;99.9;;;;;;;;;
2021/03/21 01:06:01;;;;;;;11.3;9.87;;;6.5;99.9;;;;;;;;;
2021/03/21 01:06:10;;;;;;;11.3;9.87;;;6.5;99.9;;;;;;;;;
2021/03/21 01:06:15;;;;;;;11.3;9.87;;;6.5;99.9;;;;;;;;;
2021/03/21 01:06:25;;;;;;;11.3;9.87;;;6.5;99.9;;;;;;;;;
2021/03/21 01:06:41;;;;;;;12.7;9.93;;;6.5;99.9;;;;;;;;;
2021/03/21 01:06:56;;;;;;;12.7;9.93;;;6.5;99.9;;;;;;;;;
2021/03/21 01:07:02;;;;;;;12.7;9.93;;;6.5;99.9;;;;;;;;;
2021/03/21 01:07:06;;;;;;;12.7;9.93;;;6.5;99.9;;;;;;;;;
2021/03/21 01:07:22;;;;;;;12.7;9.93;;;6.5;99.9;;;;;;;;;
2021/03/21 01:07:27;;;;;;;12.7;9.93;;;6.5;99.9;;;;;;;;;
2021/03/21 01:07:42;;;;;;;11.9;10;;;6.4;99.9;;;;;;;;;
2021/03/21 01:07:52;;;;;;;11.9;10;;;6.4;99.9;;;;;;;;;
2021/03/21 01:08:01;;;;;;;11.9;10;;;6.4;99.9;;;;;;;;;
2021/03/21 01:08:08;;;;;;;11.9;10;;;6.4;99.9;;;;;;;;;
2021/03/21 01:08:18;;;;;;;11.9;10;;;6.4;99.9;;;;;;;;;
2021/03/21 01:08:28;;;;;;;11.9;10;;;6.4;99.9;;;;;;;;;
2021/03/21 01:08:38;;;;;;;11.9;10;;;6.4;99.9;;;;;;;;;
2021/03/21 01:08:54;;;;;;;11.6;10.2;;;6.5;99.9;;;;;;;;;
2021/03/21 01:09:02;;;;;;;11.6;10.2;;;6.5;99.9;;;;;;;;;
2021/03/21 01:09:09;;;;;;;11.6;10.2;;;6.5;99.9;;;;;;;;;
2021/03/21 01:09:14;;;;;;;11.6;10.2;;;6.5;99.9;;;;;;;;;
2021/03/21 01:09:35;;;;;;;11.6;10.2;;;6.5;99.9;;;;;;;;;
2021/03/21 01:09:40;;;;;;;12.77;10.07;;;6.4;99.9;;;;;;;;;
2021/03/21 01:09:55;;;;;;;12.77;10.07;;;6.4;99.9;;;;;;;;;
2021/03/21 01:10:02;;;;;;;12.77;10.07;;;6.4;99.9;;;;;;;;;
2021/03/21 01:10:05;;;;;;;12.77;10.07;;;6.4;99.9;;;;;;;;;
2021/03/21 01:10:16;;;;;;;12.77;10.07;;;6.4;99.9;;;;;;;;;
2021/03/21 01:10:31;;;;;;;12.77;10.07;;;6.4;99.9;;;;;;;;;
2021/03/21 01:10:41;;;;;;;14.7;10.87;;;6.4;99.9;;;;;;;;;
2021/03/21 01:10:51;;;;;;;14.7;10.87;;;6.4;99.9;;;;;;;;;
2021/03/21 01:11:01;;;;;;;14.7;10.87;;;6.4;99.9;;;;;;;;;
2021/03/21 01:11:07;;;;;;;14.7;10.87;;;6.4;99.9;;;;;;;;;
2021/03/21 01:11:17;;;;;;;14.7;10.87;;;6.4;99.9;;;;;;;;;
2021/03/21 01:11:27;;;;;;;14.7;10.87;;;6.4;99.9;;;;;;;;;
2021/03/21 01:11:48;;;;;;;14;10.93;;;6.4;99.9;;;;;;;;;
2021/03/21 01:11:53;;;;;;;14;10.93;;;6.4;99.9;;;;;;;;;
2021/03/21 01:12:02;;;;;;;14;10.93;;;6.4;99.9;;;;;;;;;
2021/03/21 01:12:08;;;;;;;14;10.93;;;6.4;99.9;;;;;;;;;
2021/03/21 01:12:18;;;;;;;14;10.93;;;6.4;99.9;;;;;;;;;
2021/03/21 01:12:29;;;;;;;14;10.93;;;6.4;99.9;;;;;;;;;
2021/03/21 01:12:49;;;;;;;12.97;10.53;;;6.4;99.9;;;;;;;;;
2021/03/21 01:12:54;;;;;;;12.97;10.53;;;6.4;99.9;;;;;;;;;
2021/03/21 01:13:02;;;;;;;12.97;10.53;;;6.4;99.9;;;;;;;;;
2021/03/21 01:13:05;;;;;;;12.97;10.53;;;6.4;99.9;;;;;;;;;
2021/03/21 01:13:15;;;;;;;12.97;10.53;;;6.4;99.9;;;;;;;;;
2021/03/21 01:13:30;;;;;;;12.97;10.53;;;6.4;99.9;;;;;;;;;
2021/03/21 01:13:40;;;;;;;12.97;10.53;;;6.4;99.9;;;;;;;;;
2021/03/21 01:14:01;;;;;;;14.53;10.87;;;6.3;99.9;;;;;;;;;
2021/03/21 01:14:01;;;;;;;14.53;10.87;;;6.3;99.9;;;;;;;;;
2021/03/21 01:14:06;;;;;;;14.53;10.87;;;6.3;99.9;;;;;;;;;
2021/03/21 01:14:18;;;;;;;14.53;10.87;;;6.3;99.9;;;;;;;;;
2021/03/21 01:14:32;;;;;;;14.53;10.87;;;6.3;99.9;;;;;;;;;
2021/03/21 01:14:42;;;;;;;13.03;10.5;;;6.4;99.9;;;;;;;;;
2021/03/21 01:15:02;;;;;;;13.03;10.5;;;6.4;99.9;;;;;;;;;
2021/03/21 01:15:02;;;;;;;13.03;10.5;;;6.4;99.9;;;;;;;;;
2021/03/21 01:15:07;;;;;;;13.03;10.5;;;6.4;99.9;;;;;;;;;
2021/03/21 01:15:13;;;;;;;13.03;10.5;;;6.4;99.9;;;;;;;;;
2021/03/21 01:15:28;;;;;;;13.03;10.5;;;6.4;99.9;;;;;;;;;
2021/03/21 01:15:43;;;;;;;14.3;10.83;;;6.4;99.9;;;;;;;;;
2021/03/21 01:15:54;;;;;;;14.3;10.83;;;6.4;99.9;;;;;;;;;
2021/03/21 01:16:01;;;;;;;14.3;10.83;;;6.4;99.9;;;;;;;;;
2021/03/21 01:16:14;;;;;;;14.3;10.83;;;6.4;99.9;;;;;;;;;
2021/03/21 01:16:14;;;;;;;14.3;10.83;;;6.4;99.9;;;;;;;;;
2021/03/21 01:16:30;;;;;;;14.3;10.83;;;6.4;99.9;;;;;;;;;